sensor_id;sensor_type;location;lat;lon;timestamp;P1;durP1;ratioP1;P2;durP2;ratioP2
74967;SDS011;63523;51.880;12.630;2024-03-08T00:01:39;24.55;;;8.50;;
74967;SDS011;63523;51.880;12.630;2024-03-08T00:04:04;20.63;;;7.87;;
74967;SDS011;63523;51.880;12.630;2024-03-08T00:06:31;23.15;;;7.38;;
74967;SDS011;63523;51.880;12.630;2024-03-08T00:08:56;21.53;;;8.57;;
74967;SDS011;63523;51.880;12.630;2024-03-08T00:11:22;21.17;;;7.20;;
74967;SDS011;63523;51.880;12.630;2024-03-08T00:13:47;21.77;;;8.15;;
74967;SDS011;63523;51.880;12.630;2024-03-08T00:16:13;21.50;;;8.10;;
74967;SDS011;63523;51.880;12.630;2024-03-08T00:18:38;18.40;;;7.38;;
74967;SDS011;63523;51.880;12.630;2024-03-08T00:21:03;19.37;;;7.57;;
74967;SDS011;63523;51.880;12.630;2024-03-08T00:23:29;23.43;;;7.97;;
74967;SDS011;63523;51.880;12.630;2024-03-08T00:25:54;20.83;;;7.80;;
74967;SDS011;63523;51.880;12.630;2024-03-08T00:28:20;21.92;;;7.82;;
74967;SDS011;63523;51.880;12.630;2024-03-08T00:30:46;19.90;;;7.67;;
74967;SDS011;63523;51.880;12.630;2024-03-08T00:33:11;21.47;;;7.43;;
74967;SDS011;63523;51.880;12.630;2024-03-08T00:35:36;22.42;;;8.23;;
74967;SDS011;63523;51.880;12.630;2024-03-08T00:38:02;22.08;;;8.02;;
74967;SDS011;63523;51.880;12.630;2024-03-08T00:40:27;20.40;;;8.05;;
74967;SDS011;63523;51.880;12.630;2024-03-08T00:42:53;17.25;;;7.35;;
74967;SDS011;63523;51.880;12.630;2024-03-08T00:45:19;19.95;;;8.15;;
74967;SDS011;63523;51.880;12.630;2024-03-08T00:47:44;21.67;;;7.77;;
74967;SDS011;63523;51.880;12.630;2024-03-08T00:50:09;18.10;;;6.97;;
74967;SDS011;63523;51.880;12.630;2024-03-08T00:52:35;19.20;;;7.53;;
74967;SDS011;63523;51.880;12.630;2024-03-08T00:55:01;19.05;;;7.47;;
74967;SDS011;63523;51.880;12.630;2024-03-08T00:57:26;20.20;;;8.00;;
74967;SDS011;63523;51.880;12.630;2024-03-08T00:59:52;21.77;;;7.38;;
74967;SDS011;63523;51.880;12.630;2024-03-08T01:02:18;19.23;;;7.73;;
74967;SDS011;63523;51.880;12.630;2024-03-08T01:04:44;21.83;;;8.07;;
74967;SDS011;63523;51.880;12.630;2024-03-08T01:07:10;22.07;;;7.87;;
74967;SDS011;63523;51.880;12.630;2024-03-08T01:09:35;17.67;;;7.17;;
74967;SDS011;63523;51.880;12.630;2024-03-08T01:12:01;19.93;;;7.70;;
74967;SDS011;63523;51.880;12.630;2024-03-08T01:14:26;18.60;;;7.65;;
74967;SDS011;63523;51.880;12.630;2024-03-08T01:16:51;19.02;;;7.43;;
74967;SDS011;63523;51.880;12.630;2024-03-08T01:19:17;22.70;;;7.70;;
74967;SDS011;63523;51.880;12.630;2024-03-08T01:21:42;22.90;;;8.03;;
74967;SDS011;63523;51.880;12.630;2024-03-08T01:24:08;20.97;;;7.33;;
74967;SDS011;63523;51.880;12.630;2024-03-08T01:26:33;18.83;;;7.35;;
74967;SDS011;63523;51.880;12.630;2024-03-08T01:29:01;20.15;;;7.88;;
74967;SDS011;63523;51.880;12.630;2024-03-08T01:31:30;23.30;;;8.15;;
74967;SDS011;63523;51.880;12.630;2024-03-08T01:33:56;18.63;;;7.20;;
74967;SDS011;63523;51.880;12.630;2024-03-08T01:36:22;19.48;;;7.18;;
74967;SDS011;63523;51.880;12.630;2024-03-08T01:38:47;16.58;;;6.72;;
74967;SDS011;63523;51.880;12.630;2024-03-08T01:41:12;21.73;;;8.07;;
74967;SDS011;63523;51.880;12.630;2024-03-08T01:43:39;19.70;;;7.55;;
74967;SDS011;63523;51.880;12.630;2024-03-08T01:46:04;20.30;;;7.73;;
74967;SDS011;63523;51.880;12.630;2024-03-08T01:48:30;22.70;;;8.23;;
74967;SDS011;63523;51.880;12.630;2024-03-08T01:50:56;21.10;;;7.55;;
74967;SDS011;63523;51.880;12.630;2024-03-08T01:53:23;20.83;;;7.68;;
74967;SDS011;63523;51.880;12.630;2024-03-08T01:55:49;22.27;;;7.82;;
74967;SDS011;63523;51.880;12.630;2024-03-08T01:58:15;20.48;;;7.35;;
74967;SDS011;63523;51.880;12.630;2024-03-08T02:00:44;18.35;;;7.38;;
74967;SDS011;63523;51.880;12.630;2024-03-08T02:03:11;21.23;;;7.53;;
74967;SDS011;63523;51.880;12.630;2024-03-08T02:05:37;19.23;;;7.20;;
74967;SDS011;63523;51.880;12.630;2024-03-08T02:08:05;19.33;;;7.70;;
74967;SDS011;63523;51.880;12.630;2024-03-08T02:10:32;19.73;;;7.40;;
74967;SDS011;63523;51.880;12.630;2024-03-08T02:13:03;22.67;;;7.95;;
74967;SDS011;63523;51.880;12.630;2024-03-08T02:18:16;22.60;;;8.18;;
74967;SDS011;63523;51.880;12.630;2024-03-08T02:21:06;23.17;;;8.10;;
74967;SDS011;63523;51.880;12.630;2024-03-08T02:23:31;17.95;;;7.60;;
74967;SDS011;63523;51.880;12.630;2024-03-08T02:25:57;24.27;;;7.70;;
74967;SDS011;63523;51.880;12.630;2024-03-08T02:28:23;22.57;;;8.37;;
74967;SDS011;63523;51.880;12.630;2024-03-08T02:30:50;23.40;;;8.30;;
74967;SDS011;63523;51.880;12.630;2024-03-08T02:33:21;22.42;;;8.98;;
74967;SDS011;63523;51.880;12.630;2024-03-08T02:35:48;22.58;;;8.80;;
74967;SDS011;63523;51.880;12.630;2024-03-08T02:38:23;22.08;;;8.38;;
74967;SDS011;63523;51.880;12.630;2024-03-08T02:40:49;24.17;;;8.70;;
74967;SDS011;63523;51.880;12.630;2024-03-08T02:43:16;24.02;;;8.93;;
74967;SDS011;63523;51.880;12.630;2024-03-08T02:45:45;20.77;;;8.40;;
74967;SDS011;63523;51.880;12.630;2024-03-08T02:48:11;26.97;;;9.80;;
74967;SDS011;63523;51.880;12.630;2024-03-08T02:50:37;26.45;;;10.23;;
74967;SDS011;63523;51.880;12.630;2024-03-08T02:53:05;28.67;;;9.93;;
74967;SDS011;63523;51.880;12.630;2024-03-08T02:55:31;28.75;;;10.10;;
74967;SDS011;63523;51.880;12.630;2024-03-08T02:58:00;28.85;;;9.98;;
74967;SDS011;63523;51.880;12.630;2024-03-08T03:00:26;25.95;;;10.63;;
74967;SDS011;63523;51.880;12.630;2024-03-08T03:02:51;24.77;;;9.00;;
74967;SDS011;63523;51.880;12.630;2024-03-08T03:05:20;26.40;;;10.35;;
74967;SDS011;63523;51.880;12.630;2024-03-08T03:07:45;24.55;;;9.95;;
74967;SDS011;63523;51.880;12.630;2024-03-08T03:10:11;26.37;;;9.13;;
74967;SDS011;63523;51.880;12.630;2024-03-08T03:12:37;23.17;;;9.07;;
74967;SDS011;63523;51.880;12.630;2024-03-08T03:15:03;30.63;;;10.30;;
74967;SDS011;63523;51.880;12.630;2024-03-08T03:17:29;28.77;;;9.88;;
74967;SDS011;63523;51.880;12.630;2024-03-08T03:19:55;25.50;;;9.85;;
74967;SDS011;63523;51.880;12.630;2024-03-08T03:22:20;28.50;;;9.97;;
74967;SDS011;63523;51.880;12.630;2024-03-08T03:24:46;28.08;;;9.65;;
74967;SDS011;63523;51.880;12.630;2024-03-08T03:27:12;24.63;;;9.20;;
74967;SDS011;63523;51.880;12.630;2024-03-08T03:29:38;26.40;;;9.40;;
74967;SDS011;63523;51.880;12.630;2024-03-08T03:32:10;25.67;;;9.75;;
74967;SDS011;63523;51.880;12.630;2024-03-08T03:34:39;24.65;;;10.13;;
74967;SDS011;63523;51.880;12.630;2024-03-08T03:37:05;23.53;;;8.93;;
74967;SDS011;63523;51.880;12.630;2024-03-08T03:39:32;26.42;;;9.70;;
74967;SDS011;63523;51.880;12.630;2024-03-08T03:41:59;28.30;;;9.77;;
74967;SDS011;63523;51.880;12.630;2024-03-08T03:44:24;26.17;;;10.10;;
74967;SDS011;63523;51.880;12.630;2024-03-08T03:46:49;28.13;;;9.77;;
74967;SDS011;63523;51.880;12.630;2024-03-08T03:49:15;25.92;;;9.82;;
74967;SDS011;63523;51.880;12.630;2024-03-08T03:51:41;27.63;;;9.70;;
74967;SDS011;63523;51.880;12.630;2024-03-08T03:54:07;27.03;;;10.17;;
74967;SDS011;63523;51.880;12.630;2024-03-08T03:56:32;26.87;;;10.17;;
74967;SDS011;63523;51.880;12.630;2024-03-08T03:58:57;32.23;;;10.07;;
74967;SDS011;63523;51.880;12.630;2024-03-08T04:01:23;23.37;;;9.73;;
74967;SDS011;63523;51.880;12.630;2024-03-08T04:03:49;24.70;;;9.82;;
74967;SDS011;63523;51.880;12.630;2024-03-08T04:06:14;29.37;;;10.27;;
74967;SDS011;63523;51.880;12.630;2024-03-08T04:08:40;27.40;;;10.03;;
74967;SDS011;63523;51.880;12.630;2024-03-08T04:11:05;26.67;;;9.82;;
74967;SDS011;63523;51.880;12.630;2024-03-08T04:13:31;24.20;;;9.90;;
74967;SDS011;63523;51.880;12.630;2024-03-08T04:15:57;31.90;;;10.52;;
74967;SDS011;63523;51.880;12.630;2024-03-08T04:18:22;24.15;;;9.13;;
74967;SDS011;63523;51.880;12.630;2024-03-08T04:20:47;24.55;;;9.75;;
74967;SDS011;63523;51.880;12.630;2024-03-08T04:23:14;29.80;;;10.47;;
74967;SDS011;63523;51.880;12.630;2024-03-08T04:25:41;29.75;;;10.60;;
74967;SDS011;63523;51.880;12.630;2024-03-08T04:28:07;29.42;;;10.32;;
74967;SDS011;63523;51.880;12.630;2024-03-08T04:30:32;27.27;;;10.53;;
74967;SDS011;63523;51.880;12.630;2024-03-08T04:32:57;28.40;;;10.53;;
74967;SDS011;63523;51.880;12.630;2024-03-08T04:35:23;26.93;;;10.20;;
74967;SDS011;63523;51.880;12.630;2024-03-08T04:37:48;29.33;;;11.17;;
74967;SDS011;63523;51.880;12.630;2024-03-08T04:40:13;27.00;;;10.90;;
74967;SDS011;63523;51.880;12.630;2024-03-08T04:42:39;27.63;;;10.50;;
74967;SDS011;63523;51.880;12.630;2024-03-08T04:45:05;27.13;;;11.02;;
74967;SDS011;63523;51.880;12.630;2024-03-08T04:47:32;30.05;;;11.48;;
74967;SDS011;63523;51.880;12.630;2024-03-08T04:49:58;28.63;;;11.27;;
74967;SDS011;63523;51.880;12.630;2024-03-08T04:52:23;27.37;;;10.60;;
74967;SDS011;63523;51.880;12.630;2024-03-08T04:54:48;28.43;;;10.43;;
74967;SDS011;63523;51.880;12.630;2024-03-08T04:57:13;30.37;;;10.33;;
74967;SDS011;63523;51.880;12.630;2024-03-08T04:59:39;31.87;;;10.97;;
74967;SDS011;63523;51.880;12.630;2024-03-08T05:02:04;26.65;;;10.88;;
74967;SDS011;63523;51.880;12.630;2024-03-08T05:04:30;26.50;;;10.60;;
74967;SDS011;63523;51.880;12.630;2024-03-08T05:06:55;28.70;;;10.60;;
74967;SDS011;63523;51.880;12.630;2024-03-08T05:09:21;29.23;;;11.03;;
74967;SDS011;63523;51.880;12.630;2024-03-08T05:11:46;28.57;;;10.83;;
74967;SDS011;63523;51.880;12.630;2024-03-08T05:14:12;30.45;;;11.13;;
74967;SDS011;63523;51.880;12.630;2024-03-08T05:16:42;26.53;;;10.33;;
74967;SDS011;63523;51.880;12.630;2024-03-08T05:19:08;28.33;;;10.70;;
74967;SDS011;63523;51.880;12.630;2024-03-08T05:21:33;31.20;;;10.80;;
74967;SDS011;63523;51.880;12.630;2024-03-08T05:23:58;28.97;;;9.90;;
74967;SDS011;63523;51.880;12.630;2024-03-08T05:26:24;30.00;;;11.00;;
74967;SDS011;63523;51.880;12.630;2024-03-08T05:28:49;28.40;;;11.10;;
74967;SDS011;63523;51.880;12.630;2024-03-08T05:31:19;28.23;;;11.02;;
74967;SDS011;63523;51.880;12.630;2024-03-08T05:33:47;30.10;;;11.68;;
74967;SDS011;63523;51.880;12.630;2024-03-08T05:36:12;29.08;;;10.82;;
74967;SDS011;63523;51.880;12.630;2024-03-08T05:38:40;26.23;;;10.15;;
74967;SDS011;63523;51.880;12.630;2024-03-08T05:41:06;27.23;;;11.00;;
74967;SDS011;63523;51.880;12.630;2024-03-08T05:43:32;26.67;;;10.10;;
74967;SDS011;63523;51.880;12.630;2024-03-08T05:45:58;31.85;;;11.38;;
74967;SDS011;63523;51.880;12.630;2024-03-08T05:48:23;27.90;;;10.43;;
74967;SDS011;63523;51.880;12.630;2024-03-08T05:50:50;28.10;;;11.18;;
74967;SDS011;63523;51.880;12.630;2024-03-08T05:53:15;26.35;;;10.48;;
74967;SDS011;63523;51.880;12.630;2024-03-08T05:55:40;32.27;;;10.67;;
74967;SDS011;63523;51.880;12.630;2024-03-08T05:58:06;25.17;;;10.03;;
74967;SDS011;63523;51.880;12.630;2024-03-08T06:00:32;26.98;;;10.65;;
74967;SDS011;63523;51.880;12.630;2024-03-08T06:02:58;27.00;;;9.27;;
74967;SDS011;63523;51.880;12.630;2024-03-08T06:05:24;31.20;;;10.30;;
74967;SDS011;63523;51.880;12.630;2024-03-08T06:07:49;27.67;;;9.80;;
74967;SDS011;63523;51.880;12.630;2024-03-08T06:10:15;29.33;;;9.83;;
74967;SDS011;63523;51.880;12.630;2024-03-08T06:12:42;28.60;;;10.25;;
74967;SDS011;63523;51.880;12.630;2024-03-08T06:15:08;29.80;;;10.53;;
74967;SDS011;63523;51.880;12.630;2024-03-08T06:17:35;27.80;;;9.85;;
74967;SDS011;63523;51.880;12.630;2024-03-08T06:20:03;29.70;;;10.13;;
74967;SDS011;63523;51.880;12.630;2024-03-08T06:22:36;29.37;;;10.53;;
74967;SDS011;63523;51.880;12.630;2024-03-08T06:25:06;27.40;;;10.07;;
74967;SDS011;63523;51.880;12.630;2024-03-08T06:27:36;25.75;;;10.30;;
74967;SDS011;63523;51.880;12.630;2024-03-08T06:30:01;27.03;;;10.30;;
74967;SDS011;63523;51.880;12.630;2024-03-08T06:32:27;27.77;;;9.95;;
74967;SDS011;63523;51.880;12.630;2024-03-08T06:34:52;30.10;;;10.70;;
74967;SDS011;63523;51.880;12.630;2024-03-08T06:37:17;29.47;;;10.67;;
74967;SDS011;63523;51.880;12.630;2024-03-08T06:39:47;30.75;;;11.10;;
74967;SDS011;63523;51.880;12.630;2024-03-08T06:42:13;31.47;;;10.97;;
74967;SDS011;63523;51.880;12.630;2024-03-08T06:44:38;31.73;;;11.40;;
74967;SDS011;63523;51.880;12.630;2024-03-08T06:47:10;26.27;;;10.13;;
74967;SDS011;63523;51.880;12.630;2024-03-08T06:49:36;26.70;;;10.27;;
74967;SDS011;63523;51.880;12.630;2024-03-08T06:52:01;25.73;;;10.27;;
74967;SDS011;63523;51.880;12.630;2024-03-08T06:54:26;31.13;;;10.90;;
74967;SDS011;63523;51.880;12.630;2024-03-08T06:56:51;27.97;;;10.90;;
74967;SDS011;63523;51.880;12.630;2024-03-08T06:59:17;28.88;;;10.93;;
74967;SDS011;63523;51.880;12.630;2024-03-08T07:01:43;29.90;;;11.40;;
74967;SDS011;63523;51.880;12.630;2024-03-08T07:04:08;33.53;;;11.90;;
74967;SDS011;63523;51.880;12.630;2024-03-08T07:06:33;31.47;;;11.43;;
74967;SDS011;63523;51.880;12.630;2024-03-08T07:08:58;30.23;;;10.87;;
74967;SDS011;63523;51.880;12.630;2024-03-08T07:11:24;30.25;;;10.68;;
74967;SDS011;63523;51.880;12.630;2024-03-08T07:13:49;29.03;;;10.60;;
74967;SDS011;63523;51.880;12.630;2024-03-08T07:16:14;28.70;;;10.73;;
74967;SDS011;63523;51.880;12.630;2024-03-08T07:18:40;30.83;;;10.70;;
74967;SDS011;63523;51.880;12.630;2024-03-08T07:21:08;36.00;;;12.33;;
74967;SDS011;63523;51.880;12.630;2024-03-08T07:23:36;31.55;;;11.35;;
74967;SDS011;63523;51.880;12.630;2024-03-08T07:26:34;37.67;;;11.57;;
74967;SDS011;63523;51.880;12.630;2024-03-08T07:28:59;31.57;;;11.70;;
74967;SDS011;63523;51.880;12.630;2024-03-08T07:31:25;33.53;;;12.07;;
74967;SDS011;63523;51.880;12.630;2024-03-08T07:33:59;32.20;;;11.05;;
74967;SDS011;63523;51.880;12.630;2024-03-08T07:36:25;32.83;;;12.23;;
74967;SDS011;63523;51.880;12.630;2024-03-08T07:38:50;29.93;;;11.03;;
74967;SDS011;63523;51.880;12.630;2024-03-08T07:41:16;31.73;;;11.00;;
74967;SDS011;63523;51.880;12.630;2024-03-08T07:43:41;29.30;;;11.17;;
74967;SDS011;63523;51.880;12.630;2024-03-08T07:46:07;42.55;;;11.93;;
74967;SDS011;63523;51.880;12.630;2024-03-08T07:48:35;35.70;;;12.35;;
74967;SDS011;63523;51.880;12.630;2024-03-08T07:51:01;32.67;;;11.67;;
74967;SDS011;63523;51.880;12.630;2024-03-08T07:53:27;40.45;;;11.50;;
74967;SDS011;63523;51.880;12.630;2024-03-08T07:55:53;30.70;;;11.23;;
74967;SDS011;63523;51.880;12.630;2024-03-08T07:58:18;29.63;;;12.20;;
74967;SDS011;63523;51.880;12.630;2024-03-08T08:00:43;30.27;;;11.70;;
74967;SDS011;63523;51.880;12.630;2024-03-08T08:03:09;33.50;;;11.98;;
74967;SDS011;63523;51.880;12.630;2024-03-08T08:05:34;31.00;;;11.53;;
74967;SDS011;63523;51.880;12.630;2024-03-08T08:08:00;33.20;;;11.47;;
74967;SDS011;63523;51.880;12.630;2024-03-08T08:10:28;34.65;;;11.82;;
74967;SDS011;63523;51.880;12.630;2024-03-08T08:12:53;32.67;;;11.93;;
74967;SDS011;63523;51.880;12.630;2024-03-08T08:15:19;33.30;;;11.80;;
74967;SDS011;63523;51.880;12.630;2024-03-08T08:17:44;36.67;;;12.30;;
74967;SDS011;63523;51.880;12.630;2024-03-08T08:20:10;31.38;;;11.73;;
74967;SDS011;63523;51.880;12.630;2024-03-08T08:22:40;30.90;;;11.47;;
74967;SDS011;63523;51.880;12.630;2024-03-08T08:25:07;30.48;;;10.93;;
74967;SDS011;63523;51.880;12.630;2024-03-08T08:27:33;31.42;;;12.23;;
74967;SDS011;63523;51.880;12.630;2024-03-08T08:29:59;29.47;;;11.73;;
74967;SDS011;63523;51.880;12.630;2024-03-08T08:32:24;30.27;;;11.87;;
74967;SDS011;63523;51.880;12.630;2024-03-08T08:34:49;34.30;;;12.37;;
74967;SDS011;63523;51.880;12.630;2024-03-08T08:37:15;32.00;;;11.85;;
74967;SDS011;63523;51.880;12.630;2024-03-08T08:39:41;33.27;;;11.63;;
74967;SDS011;63523;51.880;12.630;2024-03-08T08:42:06;30.73;;;12.27;;
74967;SDS011;63523;51.880;12.630;2024-03-08T08:44:34;29.85;;;11.52;;
74967;SDS011;63523;51.880;12.630;2024-03-08T08:47:00;27.63;;;11.03;;
74967;SDS011;63523;51.880;12.630;2024-03-08T08:49:25;29.73;;;12.43;;
74967;SDS011;63523;51.880;12.630;2024-03-08T08:51:51;30.23;;;11.60;;
74967;SDS011;63523;51.880;12.630;2024-03-08T08:54:16;28.33;;;11.23;;
74967;SDS011;63523;51.880;12.630;2024-03-08T08:56:42;33.40;;;15.40;;
74967;SDS011;63523;51.880;12.630;2024-03-08T08:59:09;32.83;;;11.93;;
74967;SDS011;63523;51.880;12.630;2024-03-08T09:01:38;30.48;;;11.23;;
74967;SDS011;63523;51.880;12.630;2024-03-08T09:04:04;31.37;;;12.27;;
74967;SDS011;63523;51.880;12.630;2024-03-08T09:06:29;32.50;;;10.65;;
74967;SDS011;63523;51.880;12.630;2024-03-08T09:08:54;31.73;;;11.07;;
74967;SDS011;63523;51.880;12.630;2024-03-08T09:11:20;27.17;;;10.13;;
74967;SDS011;63523;51.880;12.630;2024-03-08T09:13:45;24.37;;;9.97;;
74967;SDS011;63523;51.880;12.630;2024-03-08T09:16:11;26.30;;;10.73;;
74967;SDS011;63523;51.880;12.630;2024-03-08T09:18:36;25.90;;;9.73;;
74967;SDS011;63523;51.880;12.630;2024-03-08T09:21:02;27.93;;;10.10;;
74967;SDS011;63523;51.880;12.630;2024-03-08T09:23:28;27.20;;;10.23;;
74967;SDS011;63523;51.880;12.630;2024-03-08T09:25:55;26.85;;;10.55;;
74967;SDS011;63523;51.880;12.630;2024-03-08T09:28:22;23.13;;;10.50;;
74967;SDS011;63523;51.880;12.630;2024-03-08T09:30:48;24.83;;;9.20;;
74967;SDS011;63523;51.880;12.630;2024-03-08T09:33:13;23.67;;;9.90;;
74967;SDS011;63523;51.880;12.630;2024-03-08T09:35:42;25.13;;;10.32;;
74967;SDS011;63523;51.880;12.630;2024-03-08T09:38:07;20.77;;;7.87;;
74967;SDS011;63523;51.880;12.630;2024-03-08T09:40:37;20.58;;;9.05;;
74967;SDS011;63523;51.880;12.630;2024-03-08T09:43:03;24.13;;;9.10;;
74967;SDS011;63523;51.880;12.630;2024-03-08T09:45:28;22.45;;;8.32;;
74967;SDS011;63523;51.880;12.630;2024-03-08T09:48:00;23.55;;;8.23;;
74967;SDS011;63523;51.880;12.630;2024-03-08T09:50:26;20.33;;;8.47;;
74967;SDS011;63523;51.880;12.630;2024-03-08T09:52:52;18.77;;;7.95;;
74967;SDS011;63523;51.880;12.630;2024-03-08T09:55:22;18.05;;;6.82;;
74967;SDS011;63523;51.880;12.630;2024-03-08T09:57:47;16.87;;;6.33;;
74967;SDS011;63523;51.880;12.630;2024-03-08T10:00:33;17.45;;;7.30;;
74967;SDS011;63523;51.880;12.630;2024-03-08T10:03:01;15.33;;;7.13;;
74967;SDS011;63523;51.880;12.630;2024-03-08T10:05:27;18.58;;;7.50;;
74967;SDS011;63523;51.880;12.630;2024-03-08T10:07:53;17.23;;;7.70;;
74967;SDS011;63523;51.880;12.630;2024-03-08T10:10:18;18.83;;;7.73;;
74967;SDS011;63523;51.880;12.630;2024-03-08T10:12:44;22.47;;;8.60;;
74967;SDS011;63523;51.880;12.630;2024-03-08T10:15:10;19.40;;;8.10;;
74967;SDS011;63523;51.880;12.630;2024-03-08T10:17:37;27.10;;;9.63;;
74967;SDS011;63523;51.880;12.630;2024-03-08T10:20:05;21.77;;;8.48;;
74967;SDS011;63523;51.880;12.630;2024-03-08T10:22:39;22.50;;;9.02;;
74967;SDS011;63523;51.880;12.630;2024-03-08T10:25:07;21.17;;;9.10;;
74967;SDS011;63523;51.880;12.630;2024-03-08T10:27:35;22.90;;;10.07;;
74967;SDS011;63523;51.880;12.630;2024-03-08T10:30:00;22.77;;;10.07;;
74967;SDS011;63523;51.880;12.630;2024-03-08T10:32:26;23.13;;;9.70;;
74967;SDS011;63523;51.880;12.630;2024-03-08T10:34:51;22.03;;;10.20;;
74967;SDS011;63523;51.880;12.630;2024-03-08T10:37:17;22.87;;;9.30;;
74967;SDS011;63523;51.880;12.630;2024-03-08T10:39:49;25.35;;;10.25;;
74967;SDS011;63523;51.880;12.630;2024-03-08T10:42:35;24.13;;;9.73;;
74967;SDS011;63523;51.880;12.630;2024-03-08T10:45:15;22.13;;;9.85;;
74967;SDS011;63523;51.880;12.630;2024-03-08T10:47:46;27.13;;;11.13;;
74967;SDS011;63523;51.880;12.630;2024-03-08T10:50:18;24.23;;;10.30;;
74967;SDS011;63523;51.880;12.630;2024-03-08T10:52:51;23.98;;;10.35;;
74967;SDS011;63523;51.880;12.630;2024-03-08T10:55:17;27.02;;;9.77;;
74967;SDS011;63523;51.880;12.630;2024-03-08T10:57:45;23.27;;;9.23;;
74967;SDS011;63523;51.880;12.630;2024-03-08T11:00:11;22.30;;;10.03;;
74967;SDS011;63523;51.880;12.630;2024-03-08T11:02:38;24.17;;;10.10;;
74967;SDS011;63523;51.880;12.630;2024-03-08T11:05:04;27.42;;;10.52;;
74967;SDS011;63523;51.880;12.630;2024-03-08T11:07:33;29.47;;;11.23;;
74967;SDS011;63523;51.880;12.630;2024-03-08T11:10:02;28.92;;;11.40;;
74967;SDS011;63523;51.880;12.630;2024-03-08T11:12:35;24.13;;;10.40;;
74967;SDS011;63523;51.880;12.630;2024-03-08T11:15:02;25.33;;;10.65;;
74967;SDS011;63523;51.880;12.630;2024-03-08T11:20:05;24.23;;;10.57;;
74967;SDS011;63523;51.880;12.630;2024-03-08T11:22:40;27.52;;;11.50;;
74967;SDS011;63523;51.880;12.630;2024-03-08T11:25:38;26.08;;;10.30;;
74967;SDS011;63523;51.880;12.630;2024-03-08T11:30:41;27.38;;;11.18;;
74967;SDS011;63523;51.880;12.630;2024-03-08T11:33:10;24.00;;;10.75;;
74967;SDS011;63523;51.880;12.630;2024-03-08T11:35:37;26.20;;;11.68;;
74967;SDS011;63523;51.880;12.630;2024-03-08T11:38:03;27.55;;;11.50;;
74967;SDS011;63523;51.880;12.630;2024-03-08T11:40:29;28.77;;;10.67;;
74967;SDS011;63523;51.880;12.630;2024-03-08T11:42:54;26.17;;;10.30;;
74967;SDS011;63523;51.880;12.630;2024-03-08T11:45:20;25.33;;;10.73;;
74967;SDS011;63523;51.880;12.630;2024-03-08T11:47:49;23.63;;;10.10;;
74967;SDS011;63523;51.880;12.630;2024-03-08T11:50:15;29.00;;;10.43;;
74967;SDS011;63523;51.880;12.630;2024-03-08T11:52:43;24.67;;;9.65;;
74967;SDS011;63523;51.880;12.630;2024-03-08T11:55:09;23.03;;;9.23;;
74967;SDS011;63523;51.880;12.630;2024-03-08T11:57:37;23.95;;;9.10;;
74967;SDS011;63523;51.880;12.630;2024-03-08T12:00:03;23.37;;;8.60;;
74967;SDS011;63523;51.880;12.630;2024-03-08T12:02:35;20.52;;;8.93;;
74967;SDS011;63523;51.880;12.630;2024-03-08T12:05:01;23.55;;;9.38;;
74967;SDS011;63523;51.880;12.630;2024-03-08T12:07:31;19.10;;;8.30;;
74967;SDS011;63523;51.880;12.630;2024-03-08T12:10:18;17.45;;;7.28;;
74967;SDS011;63523;51.880;12.630;2024-03-08T12:12:46;19.07;;;7.13;;
74967;SDS011;63523;51.880;12.630;2024-03-08T12:15:13;16.10;;;6.50;;
74967;SDS011;63523;51.880;12.630;2024-03-08T12:17:40;17.17;;;6.50;;
74967;SDS011;63523;51.880;12.630;2024-03-08T12:20:17;17.40;;;7.35;;
74967;SDS011;63523;51.880;12.630;2024-03-08T12:22:43;17.67;;;7.38;;
74967;SDS011;63523;51.880;12.630;2024-03-08T12:25:13;17.83;;;7.30;;
74967;SDS011;63523;51.880;12.630;2024-03-08T12:27:42;18.42;;;7.70;;
74967;SDS011;63523;51.880;12.630;2024-03-08T12:30:18;16.63;;;6.72;;
74967;SDS011;63523;51.880;12.630;2024-03-08T12:35:22;20.02;;;6.25;;
74967;SDS011;63523;51.880;12.630;2024-03-08T12:37:58;18.30;;;6.30;;
74967;SDS011;63523;51.880;12.630;2024-03-08T12:40:28;19.45;;;7.53;;
74967;SDS011;63523;51.880;12.630;2024-03-08T12:42:58;17.27;;;7.13;;
74967;SDS011;63523;51.880;12.630;2024-03-08T12:45:24;17.25;;;6.95;;
74967;SDS011;63523;51.880;12.630;2024-03-08T12:47:50;19.23;;;7.03;;
74967;SDS011;63523;51.880;12.630;2024-03-08T12:50:19;17.63;;;6.90;;
74967;SDS011;63523;51.880;12.630;2024-03-08T12:52:45;18.50;;;7.32;;
74967;SDS011;63523;51.880;12.630;2024-03-08T12:55:10;17.23;;;7.13;;
74967;SDS011;63523;51.880;12.630;2024-03-08T12:57:37;20.48;;;7.90;;
74967;SDS011;63523;51.880;12.630;2024-03-08T13:00:03;15.90;;;6.73;;
74967;SDS011;63523;51.880;12.630;2024-03-08T13:02:29;18.25;;;6.70;;
74967;SDS011;63523;51.880;12.630;2024-03-08T13:04:56;20.23;;;7.40;;
74967;SDS011;63523;51.880;12.630;2024-03-08T13:07:25;17.48;;;7.43;;
74967;SDS011;63523;51.880;12.630;2024-03-08T13:09:51;16.07;;;6.77;;
74967;SDS011;63523;51.880;12.630;2024-03-08T13:12:18;17.50;;;6.93;;
74967;SDS011;63523;51.880;12.630;2024-03-08T13:14:45;18.75;;;7.13;;
74967;SDS011;63523;51.880;12.630;2024-03-08T13:17:10;17.20;;;6.60;;
74967;SDS011;63523;51.880;12.630;2024-03-08T13:19:36;18.38;;;7.43;;
74967;SDS011;63523;51.880;12.630;2024-03-08T13:22:03;20.90;;;6.30;;
74967;SDS011;63523;51.880;12.630;2024-03-08T13:24:32;18.13;;;6.50;;
74967;SDS011;63523;51.880;12.630;2024-03-08T13:26:59;16.05;;;6.25;;
74967;SDS011;63523;51.880;12.630;2024-03-08T13:29:24;16.95;;;6.47;;
74967;SDS011;63523;51.880;12.630;2024-03-08T13:31:50;15.60;;;5.97;;
74967;SDS011;63523;51.880;12.630;2024-03-08T13:34:19;15.20;;;6.22;;
74967;SDS011;63523;51.880;12.630;2024-03-08T13:36:52;13.75;;;5.55;;
74967;SDS011;63523;51.880;12.630;2024-03-08T13:39:19;15.65;;;6.35;;
74967;SDS011;63523;51.880;12.630;2024-03-08T13:41:45;17.47;;;6.13;;
74967;SDS011;63523;51.880;12.630;2024-03-08T13:44:11;14.70;;;5.63;;
74967;SDS011;63523;51.880;12.630;2024-03-08T13:46:37;14.63;;;5.50;;
74967;SDS011;63523;51.880;12.630;2024-03-08T13:49:03;14.85;;;5.43;;
74967;SDS011;63523;51.880;12.630;2024-03-08T13:51:34;14.53;;;4.90;;
74967;SDS011;63523;51.880;12.630;2024-03-08T13:54:00;15.70;;;5.60;;
74967;SDS011;63523;51.880;12.630;2024-03-08T13:56:26;15.20;;;5.40;;
74967;SDS011;63523;51.880;12.630;2024-03-08T13:58:51;13.85;;;4.97;;
74967;SDS011;63523;51.880;12.630;2024-03-08T14:01:17;13.10;;;5.37;;
74967;SDS011;63523;51.880;12.630;2024-03-08T14:03:42;15.43;;;5.67;;
74967;SDS011;63523;51.880;12.630;2024-03-08T14:06:08;13.03;;;4.90;;
74967;SDS011;63523;51.880;12.630;2024-03-08T14:08:34;15.82;;;5.53;;
74967;SDS011;63523;51.880;12.630;2024-03-08T14:11:03;12.10;;;4.97;;
74967;SDS011;63523;51.880;12.630;2024-03-08T14:13:40;14.95;;;5.22;;
74967;SDS011;63523;51.880;12.630;2024-03-08T14:16:06;14.13;;;5.47;;
74967;SDS011;63523;51.880;12.630;2024-03-08T14:18:34;13.35;;;5.60;;
74967;SDS011;63523;51.880;12.630;2024-03-08T14:20:59;13.53;;;5.50;;
74967;SDS011;63523;51.880;12.630;2024-03-08T14:23:24;13.50;;;5.10;;
74967;SDS011;63523;51.880;12.630;2024-03-08T14:25:50;15.93;;;4.93;;